METAR Data
IDs: Format: Raw Decoded Include TAF

Data at: 2125 UTC 18 Sep 2018

KCEC 182056Z AUTO 18009KT 10SM SCT011 15/11 A3004 RMK AO2 SLP172 T01500106 58001
KCEC 182005Z AUTO VRB06KT 10SM SCT012 14/11 A3004 RMK AO2 T01440106
KCEC 181956Z AUTO 22006KT 10SM BKN012 15/11 A3004 RMK AO2 SLP174 T01500106
KCEC 181930Z AUTO 18007KT 10SM BKN010 14/11 A3005 RMK AO2 T01440106
KCEC 181856Z AUTO 21005KT 10SM BKN007 14/11 A3005 RMK AO2 SLP176 T01390106
KCEC 181756Z AUTO 27007KT 240V300 10SM OVC005 12/11 A3004 RMK AO2 SLP174 T01220111 10122 20094 51003
KCEC 181656Z AUTO 32004KT 8SM OVC006 12/11 A3004 RMK AO2 SLP172 T01220111
KCEC 181556Z AUTO 00000KT 10SM OVC006 12/11 A3004 RMK AO2 SLP174 T01170106
KCEC 181456Z AUTO 00000KT 10SM OVC006 12/11 A3003 RMK AO2 SLP171 T01170106 53009
KCEC 181356Z AUTO 00000KT 10SM OVC008 11/11 A3003 RMK AO2 SLP169 T01110106
KCEC 181339Z AUTO 00000KT 8SM OVC009 10/09 A3002 RMK AO2 T01000094
KCEC 181319Z AUTO 00000KT 10SM BKN010 11/10 A3002 RMK AO2 T01060100
KCEC 181256Z AUTO 09003KT 10SM CLR 11/10 A3001 RMK AO2 SLP163 T01060100
KCEC 181239Z AUTO 08003KT 10SM SCT007 11/10 A3001 RMK AO2 T01110100
KCEC 181156Z AUTO 15004KT 10SM OVC006 11/10 A3001 RMK AO2 CIG 004V008 SLP162 T01060100 10128 20094 55000
KCEC 181151Z AUTO 14003KT 10SM OVC006 10/09 A3001 RMK AO2 CIG 004V008
KCEC 181120Z AUTO 00000KT 9SM BKN004 11/09 A3001 RMK AO2 T01060094
KCEC 181109Z AUTO 11003KT 9SM SCT004 09/09 A3001 RMK AO2 T00940089
KCEC 181056Z AUTO 11003KT 9SM CLR 10/09 A3001 RMK AO2 SLP162 T01000094
KCEC 180956Z AUTO 00000KT 10SM CLR 10/09 A3001 RMK AO2 SLP162 T01000094
KCEC 180856Z AUTO 05003KT 10SM CLR 11/11 A3001 RMK AO2 SLP162 T01110106 51004
KCEC 180756Z AUTO 05004KT 10SM CLR 11/11 A3001 RMK AO2 SLP161 T01110106 401610106
KCEC 180656Z AUTO 13004KT 10SM CLR 12/11 A3000 RMK AO2 SLP161 T01220106
KCEC 180556Z AUTO 16012KT 10SM CLR 13/11 A3000 RMK AO2 SLP158 T01280111 10156 20128 51006
KCEC 180456Z AUTO 17011KT 10SM CLR 13/12 A2999 RMK AO2 SLP158 T01280117
KCEC 180356Z AUTO 16014G20KT 10SM CLR 13/12 A2999 RMK AO2 SLP155 T01280117 TSNO
KCEC 180256Z AUTO 15010KT 10SM CLR 13/11 A2998 RMK AO2 SLP152 T01330111 55004 TSNO
KCEC 180156Z AUTO 34004KT 9SM CLR 13/11 A2998 RMK AO2 SLP151 T01330106
KCEC 180056Z AUTO 33007KT 10SM CLR 15/11 A2998 RMK AO2 SLP154 T01500106
KCEC 172356Z AUTO 00000KT 10SM CLR 16/11 A2999 RMK AO2 SLP156 T01560111 10161 20122 56011
KCEC 172256Z AUTO 24006KT 10SM CLR 14/12 A3000 RMK AO2 SLP160 T01440117 TSNO
KCEC 172156Z AUTO VRB03KT 10SM FEW006 14/12 A3001 RMK AO2 SLP162 T01440117 TSNO
KCEC 172126Z AUTO 31004KT 10SM SCT006 14/12 A3001 RMK AO2 T01390117 TSNO
KCEC 172106Z AUTO VRB04KT 10SM BKN005 14/11 A3002 RMK AO2 T01390111 TSNO
KCEC 172056Z AUTO VRB06KT 10SM BKN004 13/11 A3002 RMK AO2 SLP167 T01330111 58006 TSNO
KCEC 172022Z AUTO 23004KT 8SM OVC004 13/11 A3003 RMK AO2 T01330111 TSNO
KCEC 171956Z AUTO 26005KT 10SM BKN005 13/11 A3003 RMK AO2 CIG 003V006 SLP171 T01330111 TSNO
KCEC 171918Z AUTO 27006KT 9SM OVC004 13/11 A3004 RMK AO2 CIG 003V007 T01330111 TSNO
KCEC 171856Z AUTO 25006KT 10SM OVC007 14/12 A3004 RMK AO2 CIG 004V009 SLP173 T01390117 TSNO
KCEC 171756Z AUTO 27005KT 10SM OVC005 13/12 A3004 RMK AO2 CIG 002V007 SLP173 T01330117 10139 20106 51006 TSNO
KCEC 171737Z AUTO 26006KT 10SM BKN006 13/11 A3004 RMK AO2 CIG 003V007 T01330111 TSNO
KCEC 171656Z AUTO 27003KT 4SM BR OVC004 12/11 A3003 RMK AO2 SLP171 T01170106 TSNO
KCEC 171637Z AUTO 27003KT 10SM BKN004 12/11 A3003 RMK AO2 T01170106 TSNO
KCEC 171624Z AUTO 25003KT 10SM FEW004 12/11 A3003 RMK AO2 T01220111 TSNO
KCEC 171556Z AUTO 33003KT 8SM CLR 12/11 A3003 RMK AO2 SLP169 T01170106 TSNO
KCEC 171456Z AUTO 00000KT 9SM SCT002 11/11 A3002 RMK AO2 SLP167 T01060106 53005 TSNO
KCEC 171440Z AUTO 00000KT 3SM BR OVC002 11/11 A3002 RMK AO2 T01060106 TSNO
KCEC 171437Z AUTO 00000KT 1 1/2SM BR OVC002 11/11 A3002 RMK AO2 T01060106 TSNO
KCEC 171404Z AUTO 17003KT 3/4SM BR VV002 11/11 A3002 RMK AO2 T01060106 TSNO
KCEC 171356Z AUTO 18003KT 1SM BR VV002 11/11 A3002 RMK AO2 SLP165 T01060106 TSNO
KCEC 171346Z AUTO 17003KT 1SM BR VV002 11/11 A3002 RMK AO2 T01110111 TSNO
KCEC 171328Z AUTO 16003KT 1 1/2SM BR OVC002 11/11 A3001 RMK AO2 T01110111 TSNO
KCEC 171306Z AUTO 16004KT 1 1/4SM BR OVC002 11/11 A3001 RMK AO2 T01110111 TSNO
KCEC 171259Z AUTO 15004KT 2SM BR OVC002 11/11 A3001 RMK AO2 VIS 1V4 T01110111 TSNO
KCEC 171256Z AUTO 14003KT 1 1/4SM BR OVC002 11/11 A3001 RMK AO2 SLP164 T01110111 TSNO
KCEC 171249Z AUTO 15005KT 1SM BR VV002 11/11 A3001 RMK AO2 T01110111 TSNO
KCEC 171224Z AUTO 15004KT 3/4SM BR VV002 11/11 A3001 RMK AO2 T01110111 TSNO
KCEC 171217Z AUTO 17004KT 1SM BR VV002 11/11 A3001 RMK AO2 T01110111 TSNO
KCEC 171207Z AUTO 17005KT 1 3/4SM BR OVC002 11/11 A3001 RMK AO2 T01110111 TSNO
KCEC 171156Z AUTO 16004KT 7SM OVC002 12/12 A3001 RMK AO2 SLP161 T01170117 10122 20106 58009 TSNO
KCEC 171135Z AUTO 15005KT 3SM BR OVC002 12/12 A3001 RMK AO2 T01170117 TSNO
KCEC 171132Z AUTO 16005KT 1 3/4SM BR OVC002 12/12 A3001 RMK AO2 T01170117 TSNO
KCEC 171115Z AUTO 17006KT 2SM BR OVC002 12/12 A3001 RMK AO2 T01170117 TSNO
KCEC 171106Z AUTO 16004KT 1 1/2SM BR OVC002 12/12 A3002 RMK AO2 T01170117 TSNO
KCEC 171056Z AUTO 16005KT 3/4SM BR VV002 12/12 A3002 RMK AO2 SLP165 T01170117 TSNO
KCEC 171042Z AUTO 13003KT 1SM BR VV002 12/12 A3002 RMK AO2 T01170117 TSNO
KCEC 171033Z AUTO 14003KT 1 3/4SM BR OVC003 12/12 A3002 RMK AO2 T01170117 TSNO
KCEC 170956Z AUTO 15005KT 6SM BR OVC002 12/12 A3003 RMK AO2 SLP167 T01220122 TSNO